Time;durP1;ratioP1;P1;durP2;ratioP2;P2;SDS_P1;SDS_P2;PMS_P1;PMS_P2;Temp;Humidity;BMP_temperature;BMP_pressure;BME280_temperature;BME280_humidity;BME280_pressure;Samples;Min_cycle;Max_cycle;Signal;HPM_P1;HPM_P2
2020/12/11 00:01:05;;;;;;;22.23;9.10;;;;;;;-2.13;96.99;100134.78;4934531;29;20250;-72
2020/12/11 00:03:30;;;;;;;19.70;8.80;;;;;;;-2.12;96.79;100129.72;4932335;28;20262;-72
2020/12/11 00:05:57;;;;;;;19.63;8.80;;;;;;;-2.13;96.49;100125.47;4932099;29;20223;-72
2020/12/11 00:08:23;;;;;;;22.70;9.03;;;;;;;-2.11;96.65;100123.78;4932125;29;20199;-72
2020/12/11 00:10:49;;;;;;;21.47;9.17;;;;;;;-2.15;96.18;100122.00;4935451;29;20290;-72
2020/12/11 00:13:15;;;;;;;24.67;8.83;;;;;;;-2.14;96.14;100112.66;4933968;29;20743;-72
2020/12/11 00:15:41;;;;;;;26.57;9.90;;;;;;;-2.14;96.44;100116.06;4944628;29;20230;-72
2020/12/11 00:18:07;;;;;;;26.47;9.83;;;;;;;-2.06;97.18;100105.97;4944077;28;20200;-72
2020/12/11 00:20:32;;;;;;;26.37;10.10;;;;;;;-2.04;97.05;100106.88;4937824;29;20206;-73
2020/12/11 00:23:03;;;;;;;23.83;9.53;;;;;;;-2.07;96.51;100104.25;4935660;29;20235;-72
2020/12/11 00:25:31;;;;;;;23.33;9.17;;;;;;;-2.10;96.56;100105.06;4971596;28;20195;-73
2020/12/11 00:27:56;;;;;;;24.80;10.23;;;;;;;-2.08;96.80;100106.78;4950931;28;20195;-72
2020/12/11 00:30:22;;;;;;;25.00;9.93;;;;;;;-2.06;96.81;100105.97;4935019;29;20217;-72
2020/12/11 00:32:48;;;;;;;22.97;9.37;;;;;;;-2.07;96.87;100103.41;4931705;29;20302;-72
2020/12/11 00:35:14;;;;;;;26.50;9.97;;;;;;;-2.17;95.52;100104.94;4937571;29;20612;-72
2020/12/11 00:37:43;;;;;;;23.73;9.93;;;;;;;-2.14;96.43;100102.44;4954475;28;20195;-72
2020/12/11 00:40:10;;;;;;;27.63;10.37;;;;;;;-2.06;97.18;100105.97;4979468;28;20191;-72
2020/12/11 00:42:36;;;;;;;25.27;9.27;;;;;;;-2.17;96.32;100105.78;4942475;28;20579;-72
2020/12/11 00:45:02;;;;;;;23.90;10.70;;;;;;;-2.21;95.79;100103.19;4944737;29;20204;-72
2020/12/11 00:47:28;;;;;;;30.60;10.47;;;;;;;-2.15;96.97;100104.13;4937174;29;20207;-73
2020/12/11 00:49:54;;;;;;;25.60;10.47;;;;;;;-2.25;96.08;100098.81;4935065;29;20627;-72
2020/12/11 00:52:20;;;;;;;28.90;11.60;;;;;;;-2.22;96.68;100107.41;4952292;28;20191;-72
2020/12/11 00:54:50;;;;;;;26.93;10.87;;;;;;;-2.19;96.46;100104.91;4934026;28;20257;-72
2020/12/11 00:57:17;;;;;;;29.37;10.33;;;;;;;-2.20;96.50;100105.75;4940116;29;20191;-72
2020/12/11 00:59:43;;;;;;;32.07;11.10;;;;;;;-2.21;96.46;100098.06;4953542;28;20198;-72
2020/12/11 01:02:09;;;;;;;30.33;11.07;;;;;;;-2.26;96.37;100092.88;4942043;28;20656;-72
2020/12/11 01:04:34;;;;;;;27.70;11.03;;;;;;;-2.17;97.35;100093.00;4933533;28;20628;-72
2020/12/11 01:07:00;;;;;;;31.60;11.83;;;;;;;-2.23;96.60;100102.25;4934249;29;20611;-72
2020/12/11 01:09:26;;;;;;;28.07;11.07;;;;;;;-2.20;96.81;100103.22;4934611;29;20571;-73
2020/12/11 01:11:52;;;;;;;25.33;9.53;;;;;;;-2.25;96.28;100102.25;4941911;29;20219;-73
2020/12/11 01:14:19;;;;;;;27.97;11.13;;;;;;;-2.17;97.12;100098.13;4934246;29;20282;-72
2020/12/11 01:16:45;;;;;;;28.43;10.17;;;;;;;-2.16;96.95;100094.75;4933874;29;20537;-73
2020/12/11 01:19:11;;;;;;;24.50;10.30;;;;;;;-2.15;96.71;100096.44;4933585;29;20203;-72
2020/12/11 01:21:37;;;;;;;25.30;10.17;;;;;;;-2.15;96.66;100087.94;4940226;29;20192;-72
2020/12/11 01:24:02;;;;;;;26.83;10.40;;;;;;;-2.13;97.12;100089.69;4964689;28;20588;-73
2020/12/11 01:26:28;;;;;;;33.17;11.43;;;;;;;-2.13;97.02;100091.38;4941973;29;20198;-72
2020/12/11 01:28:54;;;;;;;28.73;10.77;;;;;;;-2.10;97.45;100087.16;4938030;28;20211;-72
2020/12/11 01:31:21;;;;;;;25.67;9.93;;;;;;;-2.12;97.14;100083.75;4940542;29;20203;-72
2020/12/11 01:33:48;;;;;;;33.90;10.60;;;;;;;-2.16;96.77;100093.91;4935952;29;20403;-72
2020/12/11 01:36:14;;;;;;;26.73;10.50;;;;;;;-2.14;97.45;100087.97;4934324;29;20273;-72
2020/12/11 01:38:40;;;;;;;28.33;10.77;;;;;;;-2.18;96.68;100085.31;4943041;29;20222;-72
2020/12/11 01:41:06;;;;;;;29.73;10.83;;;;;;;-2.15;97.02;100095.59;4933808;29;20199;-72
2020/12/11 01:43:32;;;;;;;32.23;11.53;;;;;;;-2.22;96.65;100093.78;4936864;29;20227;-72
2020/12/11 01:45:58;;;;;;;38.40;10.60;;;;;;;-2.17;96.87;100094.72;4933665;29;20222;-72
2020/12/11 01:48:25;;;;;;;29.60;10.37;;;;;;;-2.18;97.08;100095.53;4964339;28;20203;-72
2020/12/11 01:50:51;;;;;;;28.73;10.87;;;;;;;-2.20;96.66;100098.09;4933908;29;20215;-72
2020/12/11 01:53:16;;;;;;;29.50;10.50;;;;;;;-2.22;96.79;100094.63;4964066;28;20302;-72
2020/12/11 01:55:45;;;;;;;29.13;11.27;;;;;;;-2.14;97.11;100090.53;4932247;29;20207;-72
2020/12/11 01:58:19;;;;;;;30.33;10.60;;;;;;;-2.21;96.85;100096.38;4933594;29;20254;-72
2020/12/11 02:00:46;;;;;;;31.10;10.97;;;;;;;-2.30;96.75;100089.41;4933795;29;20202;-73
2020/12/11 02:03:12;;;;;;;31.00;11.70;;;;;;;-2.32;96.84;100077.44;4977602;28;20219;-72
2020/12/11 02:05:39;;;;;;;29.67;10.07;;;;;;;-2.33;96.91;100089.34;4938258;29;20195;-73
2020/12/11 02:08:05;;;;;;;26.10;10.43;;;;;;;-2.31;97.15;100089.38;4964750;28;20203;-72
2020/12/11 02:10:31;;;;;;;29.97;10.67;;;;;;;-2.33;97.02;100086.78;4933030;29;20212;-72
2020/12/11 02:13:04;;;;;;;28.83;10.83;;;;;;;-2.30;96.98;100083.44;4933557;29;20596;-72
2020/12/11 02:15:30;;;;;;;28.10;11.07;;;;;;;-2.33;97.43;100073.16;4934094;29;20203;-72
2020/12/11 02:17:56;;;;;;;26.03;10.30;;;;;;;-2.31;97.21;100074.03;4965467;28;20305;-72
2020/12/11 02:20:22;;;;;;;28.77;10.17;;;;;;;-2.35;97.19;100068.03;4942892;29;20254;-72
2020/12/11 02:22:49;;;;;;;32.40;10.03;;;;;;;-2.30;97.10;100071.53;4932642;29;20735;-72
2020/12/11 02:25:15;;;;;;;22.50;9.23;;;;;;;-2.27;97.33;100073.25;4940937;29;20196;-72
2020/12/11 02:27:40;;;;;;;30.07;11.07;;;;;;;-2.23;97.70;100069.06;4933450;29;20254;-72
2020/12/11 02:30:06;;;;;;;27.43;10.10;;;;;;;-2.19;98.15;100064.03;4931645;29;20617;-72
2020/12/11 02:32:32;;;;;;;25.60;10.07;;;;;;;-2.21;97.73;100068.25;4930958;29;20231;-72
2020/12/11 02:34:58;;;;;;;35.27;10.40;;;;;;;-2.23;97.56;100067.38;4932447;29;20672;-72
2020/12/11 02:37:24;;;;;;;31.37;10.33;;;;;;;-2.25;97.26;100061.41;4931762;29;20191;-72
2020/12/11 02:39:51;;;;;;;26.50;10.37;;;;;;;-2.29;97.40;100062.16;4931746;29;20204;-73
2020/12/11 02:42:17;;;;;;;30.43;11.30;;;;;;;-2.26;97.73;100063.91;4931942;29;20659;-72
2020/12/11 02:44:42;;;;;;;27.63;10.33;;;;;;;-2.20;98.03;100061.44;4932309;29;20234;-72
2020/12/11 02:47:08;;;;;;;25.80;10.50;;;;;;;-2.28;97.39;100056.22;4931658;29;20659;-73
2020/12/11 02:49:34;;;;;;;29.93;11.20;;;;;;;-2.28;97.39;100051.13;4932113;29;20294;-73
2020/12/11 02:52:01;;;;;;;30.40;10.73;;;;;;;-2.26;98.20;100053.72;4936073;28;20200;-72
2020/12/11 02:54:27;;;;;;;29.43;10.17;;;;;;;-2.31;97.79;100039.16;4932041;29;20199;-72
2020/12/11 02:56:54;;;;;;;24.47;10.03;;;;;;;-2.25;97.90;100040.09;4931425;29;20255;-72
2020/12/11 02:59:19;;;;;;;35.30;11.27;;;;;;;-2.26;98.08;100031.56;4938554;29;20190;-72
2020/12/11 03:01:45;;;;;;;29.80;10.83;;;;;;;-2.19;98.04;100022.31;4938292;28;20206;-73
2020/12/11 03:04:11;;;;;;;28.63;10.50;;;;;;;-2.23;97.67;100013.75;4936926;29;20274;-72
2020/12/11 03:06:37;;;;;;;32.87;11.90;;;;;;;-2.22;97.95;100018.00;4933040;29;20207;-72
2020/12/11 03:09:03;;;;;;;29.93;11.53;;;;;;;-2.19;98.08;100012.09;4930313;29;20203;-72
2020/12/11 03:11:29;;;;;;;30.73;10.80;;;;;;;-2.19;98.10;100017.22;4931838;29;20202;-72
2020/12/11 03:13:56;;;;;;;32.57;11.00;;;;;;;-2.28;97.82;100017.91;4939188;29;20211;-72
2020/12/11 03:16:22;;;;;;;32.00;10.33;;;;;;;-2.31;98.15;100010.19;4946712;29;20199;-72
2020/12/11 03:18:48;;;;;;;29.93;10.87;;;;;;;-2.29;98.38;100013.63;4932818;28;20902;-72
2020/12/11 03:21:15;;;;;;;27.23;10.90;;;;;;;-2.21;98.52;100018.88;4930887;29;20238;-72
2020/12/11 03:23:41;;;;;;;30.47;10.93;;;;;;;-2.21;98.33;100014.63;4936450;28;20649;-73
2020/12/11 03:26:07;;;;;;;27.77;11.17;;;;;;;-2.19;98.70;100012.94;4930081;29;20202;-72
2020/12/11 03:28:33;;;;;;;26.30;10.70;;;;;;;-2.15;98.45;100013.84;4948613;29;20202;-73
2020/12/11 03:31:01;;;;;;;34.17;11.70;;;;;;;-2.11;98.40;100007.94;4932845;28;20222;-72
2020/12/11 03:33:27;;;;;;;39.63;11.33;;;;;;;-2.12;98.43;100006.25;4931007;29;20219;-72
2020/12/11 03:35:53;;;;;;;31.43;10.90;;;;;;;-2.17;98.18;99998.50;4914801;29;503017;-73
2020/12/11 03:38:19;;;;;;;40.90;12.63;;;;;;;-2.19;98.29;99996.78;4935507;29;20201;-72
2020/12/11 03:40:45;;;;;;;31.93;12.00;;;;;;;-2.20;98.13;99998.47;4981648;28;20198;-72
2020/12/11 03:43:11;;;;;;;34.23;12.80;;;;;;;-2.12;98.98;99996.03;4932601;28;20703;-72
2020/12/11 03:45:37;;;;;;;38.87;12.13;;;;;;;-2.16;98.53;99995.13;4936055;29;20196;-73
2020/12/11 03:48:03;;;;;;;32.07;11.20;;;;;;;-2.17;98.37;99990.84;4935727;29;20203;-72
2020/12/11 03:50:30;;;;;;;35.20;12.17;;;;;;;-2.14;98.50;99988.34;4982187;28;20217;-72
2020/12/11 03:52:55;;;;;;;31.87;12.57;;;;;;;-2.14;98.58;99984.94;4945819;29;20583;-72
2020/12/11 03:55:21;;;;;;;29.37;12.03;;;;;;;-2.13;98.59;99989.19;4935716;29;20231;-72
2020/12/11 03:57:47;;;;;;;31.67;11.47;;;;;;;-2.17;98.39;99982.31;4935046;29;20617;-72
2020/12/11 04:00:13;;;;;;;37.40;12.50;;;;;;;-2.16;98.46;99982.34;4935968;29;20234;-72
2020/12/11 04:02:39;;;;;;;32.30;13.57;;;;;;;-2.22;98.29;99974.59;4934726;29;20247;-71
2020/12/11 04:05:06;;;;;;;42.50;12.77;;;;;;;-2.21;98.39;99971.22;4943559;29;20196;-72
2020/12/11 04:07:33;;;;;;;31.93;11.43;;;;;;;-2.22;98.75;99969.47;4935735;29;20218;-72
2020/12/11 04:09:59;;;;;;;31.63;11.93;;;;;;;-2.19;98.83;99964.44;4941168;28;20219;-72
2020/12/11 04:12:25;;;;;;;40.13;12.97;;;;;;;-2.19;98.85;99959.31;4942990;28;20738;-72
2020/12/11 04:14:51;;;;;;;36.40;12.77;;;;;;;-2.18;98.88;99965.28;4953614;28;20206;-72
2020/12/11 04:17:17;;;;;;;36.77;11.23;;;;;;;-2.20;98.98;99962.72;4935566;29;20203;-72
2020/12/11 04:19:43;;;;;;;37.17;13.13;;;;;;;-2.12;99.32;99966.22;4935216;29;20250;-71
2020/12/11 04:22:09;;;;;;;35.17;13.53;;;;;;;-2.09;99.07;99965.44;4942496;28;20226;-72
2020/12/11 04:24:36;;;;;;;33.73;12.07;;;;;;;-2.11;98.70;99964.53;4953901;28;20669;-72
2020/12/11 04:27:02;;;;;;;34.17;13.40;;;;;;;-2.03;99.42;99965.50;4934987;29;20195;-72
2020/12/11 04:29:27;;;;;;;33.53;11.80;;;;;;;-2.03;98.87;99964.66;4940168;29;20218;-72
2020/12/11 04:31:55;;;;;;;30.03;12.60;;;;;;;-2.02;98.71;99959.56;4942687;28;20269;-72
2020/12/11 04:34:21;;;;;;;31.63;12.33;;;;;;;-2.12;98.35;99958.56;4958622;28;20235;-72
2020/12/11 04:36:51;;;;;;;30.10;11.57;;;;;;;-2.08;98.43;99962.03;4935169;29;20203;-71
2020/12/11 04:39:17;;;;;;;31.17;12.17;;;;;;;-2.06;98.23;99957.78;4933714;29;20204;-72
2020/12/11 04:41:45;;;;;;;33.47;11.90;;;;;;;-2.07;97.96;99962.91;4950327;29;20276;-72
2020/12/11 04:44:11;;;;;;;38.73;13.83;;;;;;;-2.07;97.79;99961.19;4941083;28;20215;-72
2020/12/11 04:46:38;;;;;;;34.43;13.10;;;;;;;-2.00;98.62;99952.78;4932964;29;20619;-73
2020/12/11 04:49:05;;;;;;;34.53;12.67;;;;;;;-1.99;98.13;99961.28;4935027;29;20562;-72
2020/12/11 04:51:32;;;;;;;30.33;11.57;;;;;;;-2.00;98.23;99959.59;4934330;29;20266;-72
2020/12/11 04:53:59;;;;;;;35.87;12.67;;;;;;;-1.94;98.45;99957.13;4934890;29;20243;-72
2020/12/11 04:56:27;;;;;;;33.33;11.90;;;;;;;-2.04;97.64;99958.69;4933108;29;20600;-72
2020/12/11 04:58:55;;;;;;;31.10;11.50;;;;;;;-2.07;97.45;99952.69;4935111;29;20525;-72
2020/12/11 05:01:29;;;;;;;30.83;12.03;;;;;;;-2.07;97.33;99945.03;4934236;29;20192;-72
2020/12/11 05:03:57;;;;;;;26.33;12.40;;;;;;;-2.02;97.46;99951.03;4964777;28;20477;-71
2020/12/11 05:06:23;;;;;;;35.13;12.53;;;;;;;-2.05;96.89;99943.34;4964973;28;20290;-72
2020/12/11 05:08:49;;;;;;;33.33;12.07;;;;;;;-2.04;97.04;99945.03;4940114;29;20214;-72
2020/12/11 05:11:28;;;;;;;33.53;11.90;;;;;;;-2.04;97.16;99939.94;4941539;29;20225;-72
2020/12/11 05:13:54;;;;;;;32.40;11.83;;;;;;;-2.01;97.19;99929.75;4937512;29;20227;-72
2020/12/11 05:16:21;;;;;;;31.37;12.93;;;;;;;-2.01;97.30;99930.63;4934597;29;20206;-72
2020/12/11 05:18:48;;;;;;;37.20;12.27;;;;;;;-1.97;97.51;99928.97;4937655;29;20211;-72
2020/12/11 05:21:15;;;;;;;33.57;12.43;;;;;;;-1.99;97.50;99925.53;4933566;29;20195;-72
2020/12/11 05:23:55;;;;;;;36.20;12.70;;;;;;;-1.98;97.34;99917.03;4938006;29;20226;-72
2020/12/11 05:26:21;;;;;;;35.03;12.37;;;;;;;-2.02;97.30;99910.16;4938310;28;20203;-72
2020/12/11 05:28:48;;;;;;;30.20;13.07;;;;;;;-2.00;97.21;99898.28;4934276;29;20826;-72
2020/12/11 05:31:14;;;;;;;30.67;12.10;;;;;;;-2.10;96.69;99899.84;4926906;29;20212;-72
2020/12/11 05:34:08;;;;;;;33.90;12.50;;;;;;;-2.07;97.22;99892.22;4951280;28;20222;-72
2020/12/11 05:36:49;;;;;;;35.07;12.87;;;;;;;-2.10;97.13;99890.47;4938056;29;20638;-72
2020/12/11 05:39:29;;;;;;;34.70;12.30;;;;;;;-2.11;97.05;99893.00;4934633;29;20195;-72
2020/12/11 05:41:55;;;;;;;31.10;12.47;;;;;;;-2.07;97.21;99889.66;4928195;29;20198;-72
2020/12/11 05:44:29;;;;;;;35.73;12.90;;;;;;;-2.08;97.24;99887.09;4948974;28;20255;-72
2020/12/11 05:46:57;;;;;;;31.40;12.23;;;;;;;-2.05;97.23;99890.53;4933816;29;20632;-72
2020/12/11 05:49:25;;;;;;;38.13;13.73;;;;;;;-2.06;97.34;99888.81;4934042;29;20631;-72
2020/12/11 05:51:56;;;;;;;30.83;12.83;;;;;;;-2.01;97.52;99887.19;4934161;29;20192;-72
2020/12/11 05:54:22;;;;;;;38.33;12.60;;;;;;;-2.05;97.24;99893.09;4934749;28;20215;-72
2020/12/11 05:56:51;;;;;;;32.43;12.40;;;;;;;-2.05;97.13;99894.81;4933989;29;20215;-72
2020/12/11 05:59:20;;;;;;;34.10;11.50;;;;;;;-2.04;97.54;99887.16;4932146;29;20664;-72
2020/12/11 06:01:48;;;;;;;30.90;11.33;;;;;;;-1.99;97.64;99888.06;4964226;28;20736;-72
2020/12/11 06:04:17;;;;;;;33.23;12.23;;;;;;;-1.99;97.55;99872.72;4939080;28;20420;-72
2020/12/11 06:06:46;;;;;;;36.63;12.30;;;;;;;-1.99;97.45;99877.84;4932197;29;20207;-72
2020/12/11 06:09:14;;;;;;;34.13;12.80;;;;;;;-2.01;97.45;99876.97;4936006;29;20199;-72
2020/12/11 06:11:46;;;;;;;32.80;12.67;;;;;;;-2.02;97.79;99875.25;4934400;29;20254;-72
2020/12/11 06:14:21;;;;;;;35.60;12.93;;;;;;;-2.05;97.72;99875.22;4928014;29;20759;-72
2020/12/11 06:16:51;;;;;;;32.03;11.77;;;;;;;-2.02;97.99;99867.59;4933271;29;20203;-72
2020/12/11 06:19:19;;;;;;;35.13;12.60;;;;;;;-2.03;97.86;99873.53;4933022;29;20200;-72
2020/12/11 06:21:44;;;;;;;29.47;11.37;;;;;;;-2.02;98.08;99871.81;4933495;29;20199;-72
2020/12/11 06:24:26;;;;;;;34.20;11.97;;;;;;;-2.03;98.00;99873.53;4946991;29;20319;-72
2020/12/11 06:26:56;;;;;;;34.27;12.47;;;;;;;-2.00;98.53;99873.59;4931425;29;20331;-72
2020/12/11 06:29:25;;;;;;;34.43;12.47;;;;;;;-1.99;98.55;99866.75;4933614;29;20199;-72
2020/12/11 06:31:52;;;;;;;26.47;10.97;;;;;;;-1.99;98.69;99867.63;4934161;29;20209;-72
2020/12/11 06:34:20;;;;;;;31.90;12.07;;;;;;;-1.96;98.72;99864.25;4932728;29;21220;-72
2020/12/11 06:36:47;;;;;;;25.07;11.10;;;;;;;-1.92;98.70;99866.00;4946466;29;20225;-72
2020/12/11 06:39:40;;;;;;;29.60;11.80;;;;;;;-1.98;98.73;99868.50;4945152;28;20222;-72
2020/12/11 06:42:07;;;;;;;30.50;11.73;;;;;;;-1.98;99.13;99871.91;4927490;29;20190;-72
2020/12/11 06:44:33;;;;;;;31.07;11.47;;;;;;;-1.93;99.13;99865.16;4935274;29;20541;-72
2020/12/11 06:47:03;;;;;;;32.93;11.33;;;;;;;-1.91;99.50;99868.56;4935138;29;20198;-72
2020/12/11 06:49:29;;;;;;;30.07;11.90;;;;;;;-1.94;99.41;99865.97;4920937;29;20198;-72
2020/12/11 06:52:14;;;;;;;30.63;10.80;;;;;;;-1.95;99.70;99864.28;4941180;28;20291;-72
2020/12/11 06:54:51;;;;;;;31.13;12.17;;;;;;;-1.94;99.94;99857.47;4933003;29;20596;-72
2020/12/11 06:57:46;;;;;;;28.23;11.30;;;;;;;-1.95;99.89;99848.94;4931918;29;20823;-72
2020/12/11 07:00:33;;;;;;;31.57;10.57;;;;;;;-1.92;99.83;99856.66;4920081;28;20214;-73
2020/12/11 07:03:23;;;;;;;27.67;11.27;;;;;;;-1.93;100.00;99860.03;4961040;28;20341;-72
2020/12/11 07:06:09;;;;;;;37.33;12.30;;;;;;;-1.95;100.00;99863.44;4918696;29;20202;-72
2020/12/11 07:08:36;;;;;;;28.73;10.87;;;;;;;-1.94;100.00;99860.88;4943676;28;20620;-72
2020/12/11 07:11:13;;;;;;;32.30;12.13;;;;;;;-1.94;100.00;99860.00;4941710;28;20211;-72
2020/12/11 07:13:49;;;;;;;34.23;11.57;;;;;;;-1.94;100.00;99857.47;4932980;29;20258;-72
2020/12/11 07:16:15;;;;;;;32.10;11.87;;;;;;;-1.91;100.00;99860.06;4939828;29;20203;-72
2020/12/11 07:18:41;;;;;;;39.67;13.43;;;;;;;-1.88;100.00;99862.66;4938444;28;20212;-72
2020/12/11 07:21:07;;;;;;;32.67;11.47;;;;;;;-1.91;100.00;99858.34;4941144;28;20565;-72
2020/12/11 07:23:33;;;;;;;34.67;11.93;;;;;;;-1.87;100.00;99861.81;4932016;29;20219;-73
2020/12/11 07:26:00;;;;;;;30.93;12.30;;;;;;;-1.88;100.00;99861.78;4932067;29;20203;-72
2020/12/11 07:28:26;;;;;;;37.10;12.87;;;;;;;-1.85;100.00;99857.56;4933712;29;20668;-72
2020/12/11 07:30:52;;;;;;;35.37;12.43;;;;;;;-1.81;100.00;99854.22;4940596;29;20214;-72
2020/12/11 07:33:18;;;;;;;37.30;13.20;;;;;;;-1.81;100.00;99856.78;4946522;29;20241;-72
2020/12/11 07:35:46;;;;;;;37.77;12.67;;;;;;;-1.83;100.00;99863.56;4939703;28;20203;-72
2020/12/11 07:38:12;;;;;;;34.70;13.37;;;;;;;-1.82;100.00;99856.75;4933036;29;20834;-72
2020/12/11 07:40:38;;;;;;;34.70;13.37;;;;;;;-1.76;100.00;99862.81;4942893;29;20207;-72
2020/12/11 07:43:04;;;;;;;35.17;12.43;;;;;;;-1.76;100.00;99865.38;4941068;28;20242;-73
2020/12/11 07:45:35;;;;;;;38.57;14.10;;;;;;;-1.73;100.00;99861.97;4962489;28;20572;-72
2020/12/11 07:48:01;;;;;;;34.23;12.43;;;;;;;-1.70;100.00;99866.28;4930547;29;20269;-72
2020/12/11 07:50:29;;;;;;;39.80;14.07;;;;;;;-1.70;100.00;99856.91;4965002;28;20222;-72
2020/12/11 07:52:56;;;;;;;33.63;12.50;;;;;;;-1.65;100.00;99859.50;4935882;28;20234;-73
2020/12/11 07:55:23;;;;;;;40.70;14.17;;;;;;;-1.62;100.00;99864.66;4932412;29;20207;-72
2020/12/11 07:57:51;;;;;;;40.10;13.30;;;;;;;-1.63;100.00;99861.25;4934594;29;20207;-72
2020/12/11 08:00:17;;;;;;;40.20;13.20;;;;;;;-1.60;100.00;99852.72;4936181;28;20596;-72
2020/12/11 08:02:44;;;;;;;43.50;14.60;;;;;;;-1.65;100.00;99857.81;4931004;29;20224;-72
2020/12/11 08:05:10;;;;;;;39.27;13.83;;;;;;;-1.66;99.78;99853.53;4932077;29;20686;-72
2020/12/11 08:07:36;;;;;;;45.27;14.30;;;;;;;-1.64;99.87;99843.31;4944545;29;20217;-72
2020/12/11 08:10:10;;;;;;;47.27;14.23;;;;;;;-1.60;100.00;99839.94;4932034;29;20243;-72
2020/12/11 08:12:37;;;;;;;37.47;14.40;;;;;;;-1.59;100.00;99841.69;4931699;29;20719;-72
2020/12/11 08:15:04;;;;;;;47.13;14.27;;;;;;;-1.56;99.91;99834.91;4933900;29;20203;-72
2020/12/11 08:17:31;;;;;;;39.77;13.50;;;;;;;-1.53;100.00;99832.38;4934742;29;20209;-73
2020/12/11 08:19:59;;;;;;;48.83;15.47;;;;;;;-1.54;99.65;99832.38;4931775;29;20199;-72
2020/12/11 08:22:31;;;;;;;42.70;13.00;;;;;;;-1.50;99.84;99834.09;4932302;29;20223;-73
2020/12/11 08:24:56;;;;;;;41.10;13.63;;;;;;;-1.49;99.83;99837.53;4930178;29;20200;-72
2020/12/11 08:27:24;;;;;;;44.43;16.63;;;;;;;-1.43;99.84;99830.75;4930083;29;20201;-72
2020/12/11 08:30:05;;;;;;;43.20;14.50;;;;;;;-1.41;99.64;99844.41;4940984;29;20203;-72
2020/12/11 08:32:31;;;;;;;43.07;14.40;;;;;;;-1.41;99.59;99846.13;4938242;28;20223;-72
2020/12/11 08:34:58;;;;;;;48.10;15.87;;;;;;;-1.35;99.39;99834.25;4966116;28;20207;-72
2020/12/11 08:37:24;;;;;;;47.83;16.07;;;;;;;-1.28;99.13;99829.22;4935075;29;20410;-72
2020/12/11 08:39:50;;;;;;;45.13;16.33;;;;;;;-1.21;99.04;99833.53;4937326;29;20254;-72
2020/12/11 08:42:23;;;;;;;42.57;14.80;;;;;;;-1.16;99.04;99848.09;4934834;29;20279;-72
2020/12/11 08:45:17;;;;;;;47.07;15.90;;;;;;;-1.08;99.01;99840.47;4933694;29;20715;-73
2020/12/11 08:50:33;;;;;;;50.60;16.87;;;;;;;-1.08;98.22;99837.91;4944345;29;20211;-72
2020/12/11 08:53:04;;;;;;;49.77;16.23;;;;;;;-1.06;97.88;99843.03;4936496;29;20211;-72
2020/12/11 08:55:30;;;;;;;49.10;16.87;;;;;;;-1.08;97.95;99832.78;4974556;28;20199;-73
2020/12/11 08:57:56;;;;;;;47.73;15.83;;;;;;;-1.05;97.78;99831.97;4950501;28;20195;-72
2020/12/11 09:00:22;;;;;;;45.20;17.33;;;;;;;-0.99;97.77;99834.56;4934778;29;20207;-72
2020/12/11 09:02:48;;;;;;;52.00;17.30;;;;;;;-0.98;97.67;99836.28;4934585;29;20386;-72
2020/12/11 09:05:13;;;;;;;52.30;16.23;;;;;;;-0.92;97.46;99835.47;4934969;29;20200;-72
2020/12/11 09:07:40;;;;;;;48.27;16.50;;;;;;;-0.87;97.78;99836.38;4933386;29;20207;-72
2020/12/11 09:10:06;;;;;;;52.00;17.60;;;;;;;-0.79;97.82;99838.16;4934113;29;20207;-72
2020/12/11 09:12:35;;;;;;;51.07;16.03;;;;;;;-0.72;97.48;99830.50;4942684;29;20231;-72
2020/12/11 09:15:01;;;;;;;50.50;17.80;;;;;;;-0.70;97.18;99836.47;4933924;29;20681;-72
2020/12/11 09:17:26;;;;;;;51.10;17.37;;;;;;;-0.69;97.14;99838.22;4932953;29;20196;-72
2020/12/11 09:19:52;;;;;;;51.97;16.33;;;;;;;-0.61;97.25;99829.72;4934993;29;20199;-72
2020/12/11 09:22:18;;;;;;;52.30;17.00;;;;;;;-0.66;96.45;99826.28;4963675;28;20219;-73
2020/12/11 09:24:45;;;;;;;53.73;17.83;;;;;;;-0.71;96.45;99833.06;4933364;29;20215;-73
2020/12/11 09:27:13;;;;;;;56.73;18.03;;;;;;;-0.61;96.75;99832.28;4938754;29;20567;-72
2020/12/11 09:29:39;;;;;;;52.67;17.03;;;;;;;-0.54;96.97;99833.19;4937325;28;20307;-72
2020/12/11 09:32:07;;;;;;;54.00;18.47;;;;;;;-0.50;96.80;99828.94;4937046;29;20203;-72
2020/12/11 09:34:34;;;;;;;55.67;18.00;;;;;;;-0.47;96.35;99828.97;4934570;29;20282;-72
2020/12/11 09:37:02;;;;;;;52.13;17.43;;;;;;;-0.42;96.14;99824.75;4933615;29;20210;-73
2020/12/11 09:39:27;;;;;;;54.93;19.40;;;;;;;-0.43;95.79;99823.84;4936523;28;20204;-73
2020/12/11 09:41:59;;;;;;;54.97;17.20;;;;;;;-0.43;95.70;99826.41;4934988;29;20239;-72
2020/12/11 09:44:49;;;;;;;45.73;16.07;;;;;;;-0.39;96.10;99825.63;4934558;29;20255;-72
2020/12/11 09:47:39;;;;;;;48.57;17.93;;;;;;;-0.39;95.94;99823.06;4933767;29;20670;-72
2020/12/11 09:50:25;;;;;;;49.80;18.50;;;;;;;-0.30;96.07;99816.25;4914899;29;20216;-73
2020/12/11 09:52:57;;;;;;;46.30;18.17;;;;;;;-0.28;95.51;99810.28;4930234;29;20216;-73
2020/12/11 09:55:24;;;;;;;48.03;17.83;;;;;;;-0.23;95.52;99803.50;4942525;29;20278;-72
2020/12/11 09:57:51;;;;;;;54.17;24.13;;;;;;;-0.20;95.36;99808.59;4942889;29;20214;-72
2020/12/11 10:00:17;;;;;;;54.27;19.67;;;;;;;-0.08;95.70;99806.97;4935807;29;20194;-73
2020/12/11 10:02:55;;;;;;;53.33;21.70;;;;;;;0.00;95.50;99800.16;4933128;29;20740;-72
2020/12/11 10:05:23;;;;;;;42.10;16.40;;;;;;;0.05;95.24;99797.59;4965348;28;20199;-73
2020/12/11 10:07:48;;;;;;;50.73;17.87;;;;;;;-0.12;94.49;99798.41;4927897;29;20213;-72
2020/12/11 10:10:16;;;;;;;50.37;17.23;;;;;;;-0.02;95.40;99796.72;4931107;29;20741;-73
2020/12/11 10:12:42;;;;;;;48.73;17.17;;;;;;;-0.02;94.76;99789.03;4930436;29;20426;-73
2020/12/11 10:15:10;;;;;;;46.87;16.77;;;;;;;0.03;94.82;99789.91;4930451;29;20815;-72
2020/12/11 10:17:36;;;;;;;45.37;16.90;;;;;;;0.06;94.54;99789.06;4930620;29;20196;-72
2020/12/11 10:20:03;;;;;;;53.20;18.47;;;;;;;0.08;94.23;99775.41;4934685;29;20200;-73
2020/12/11 10:22:28;;;;;;;55.90;17.43;;;;;;;0.10;94.19;99781.38;4931631;29;20244;-73
2020/12/11 10:24:54;;;;;;;51.47;19.40;;;;;;;0.12;94.35;99772.00;4936154;29;20203;-73
2020/12/11 10:27:20;;;;;;;46.57;21.60;;;;;;;0.17;94.16;99754.91;4931415;29;20239;-72
2020/12/11 10:29:46;;;;;;;46.10;17.47;;;;;;;0.20;93.76;99760.91;4935410;29;20690;-73
2020/12/11 10:32:13;;;;;;;46.30;18.77;;;;;;;0.24;93.97;99762.63;4932313;29;20204;-72
2020/12/11 10:34:38;;;;;;;53.07;21.37;;;;;;;0.26;93.92;99766.03;4936019;29;20586;-73
2020/12/11 10:37:08;;;;;;;45.83;18.97;;;;;;;0.21;93.82;99758.34;4937278;29;20203;-73
2020/12/11 10:39:34;;;;;;;49.20;17.80;;;;;;;0.20;93.61;99748.94;4936073;29;20211;-73
2020/12/11 10:42:01;;;;;;;49.30;19.13;;;;;;;0.21;93.85;99748.06;4939501;28;20199;-72
2020/12/11 10:44:27;;;;;;;45.40;19.20;;;;;;;0.30;93.91;99749.81;4935180;28;20272;-73
2020/12/11 10:46:53;;;;;;;53.57;23.13;;;;;;;0.30;93.65;99743.00;4927925;29;20205;-73
2020/12/11 10:49:19;;;;;;;52.83;19.20;;;;;;;0.32;93.76;99738.72;4933740;29;20257;-72
2020/12/11 10:51:46;;;;;;;49.40;19.43;;;;;;;0.40;93.54;99735.31;4936118;29;20229;-72
2020/12/11 10:54:14;;;;;;;51.67;19.93;;;;;;;0.40;93.35;99715.63;4934390;29;20219;-73
2020/12/11 10:56:40;;;;;;;47.77;17.73;;;;;;;0.43;92.93;99707.94;4932419;29;20205;-72
2020/12/11 10:59:06;;;;;;;48.97;17.67;;;;;;;0.48;92.84;99700.25;4935771;29;20204;-72
2020/12/11 11:01:32;;;;;;;42.03;15.27;;;;;;;0.51;93.14;99695.09;4930456;29;20218;-73
2020/12/11 11:03:58;;;;;;;44.00;17.40;;;;;;;0.53;93.12;99691.72;4926652;29;20214;-73
2020/12/11 11:06:27;;;;;;;42.20;17.07;;;;;;;0.53;92.53;99685.72;4925869;29;20215;-73
2020/12/11 11:09:05;;;;;;;41.73;15.83;;;;;;;0.57;92.90;99680.56;4928891;29;20672;-74
2020/12/11 11:11:36;;;;;;;43.67;16.83;;;;;;;0.63;92.51;99678.88;4929957;29;20232;-73
2020/12/11 11:14:15;;;;;;;40.93;15.87;;;;;;;0.67;92.77;99678.88;4932049;29;20246;-73
2020/12/11 11:19:31;;;;;;;41.90;16.20;;;;;;;0.67;92.32;99665.16;4931723;29;20225;-72
2020/12/11 11:25:07;;;;;;;43.10;16.57;;;;;;;0.70;92.38;99654.91;4959931;28;20508;-73
2020/12/11 11:27:35;;;;;;;33.83;16.03;;;;;;;0.72;92.48;99651.50;4960297;28;20229;-73